createdAt,value
2022-11-30T00:03:34.501Z,37.88
2022-11-30T00:08:40.112Z,35.15
2022-11-30T00:13:43.933Z,39.92
2022-11-30T00:18:47.616Z,36.17
2022-11-30T00:23:52.693Z,31.65
2022-11-30T00:28:57.128Z,34.53
2022-11-30T00:34:00.956Z,33.33
2022-11-30T00:39:06.387Z,26.95
2022-11-30T00:44:10.091Z,34.88
2022-11-30T00:49:13.766Z,29.50
2022-11-30T00:54:19.007Z,30.83
2022-11-30T00:59:22.653Z,28.50
2022-11-30T01:04:26.448Z,25.58
2022-11-30T01:09:31.532Z,21.75
2022-11-30T01:14:35.270Z,27.27
2022-11-30T01:19:38.985Z,23.77
2022-11-30T01:24:44.235Z,24.55
2022-11-30T01:29:48.007Z,27.58
2022-11-30T01:34:51.688Z,25.90
2022-11-30T01:39:56.746Z,26.50
2022-11-30T01:45:01.870Z,25.83
2022-11-30T01:50:10.149Z,26.48
2022-11-30T01:55:21.870Z,26.75
2022-11-30T02:00:26.051Z,27.45
2022-11-30T02:05:30.160Z,25.88
2022-11-30T02:10:39.176Z,26.90
2022-11-30T02:15:50.863Z,28.70
2022-11-30T02:21:06.155Z,28.05
2022-11-30T02:26:27.339Z,28.58
2022-11-30T02:31:39.251Z,27.23
2022-11-30T02:36:44.015Z,28.73
2022-11-30T02:41:48.127Z,29.27
2022-11-30T02:47:08.326Z,25.92
2022-11-30T02:52:12.990Z,25.95
2022-11-30T02:57:16.780Z,27.42
2022-11-30T03:02:21.979Z,24.05
2022-11-30T03:07:25.950Z,26.92
2022-11-30T03:12:30.506Z,29.63
2022-11-30T03:17:35.524Z,21.35
2022-11-30T03:22:39.421Z,22.63
2022-11-30T03:27:43.299Z,22.77
2022-11-30T03:32:48.378Z,25.85
2022-11-30T03:37:52.190Z,21.30
2022-11-30T03:42:56.021Z,20.48
2022-11-30T03:48:01.189Z,23.75
2022-11-30T03:53:04.892Z,21.30
2022-11-30T03:58:08.542Z,23.95
2022-11-30T04:03:13.722Z,27.50
2022-11-30T04:08:17.474Z,26.92
2022-11-30T04:13:21.523Z,23.63
2022-11-30T04:18:28.475Z,24.00
2022-11-30T04:23:33.847Z,25.23
2022-11-30T04:28:37.600Z,30.08
2022-11-30T04:33:42.759Z,23.73
2022-11-30T04:38:46.472Z,22.67
2022-11-30T04:43:50.255Z,20.88
2022-11-30T04:48:55.315Z,20.98
2022-11-30T04:53:59.050Z,19.92
2022-11-30T04:59:03.092Z,18.85
2022-11-30T05:04:08.212Z,19.33
2022-11-30T05:09:11.995Z,20.98
2022-11-30T05:14:15.786Z,20.40
2022-11-30T05:19:20.841Z,20.17
2022-11-30T05:24:24.539Z,17.88
2022-11-30T05:29:28.268Z,18.48
2022-11-30T05:34:49.449Z,17.55
2022-11-30T05:39:54.179Z,21.02
2022-11-30T05:44:57.975Z,20.17
2022-11-30T05:50:03.056Z,20.42
2022-11-30T05:55:07.462Z,16.70
2022-11-30T06:00:12.042Z,15.63
2022-11-30T06:05:17.467Z,14.63
2022-11-30T06:10:21.181Z,15.73
2022-11-30T06:15:24.811Z,16.00
2022-11-30T06:20:29.893Z,14.55
2022-11-30T06:25:37.179Z,17.45
2022-11-30T06:30:41.223Z,18.67
2022-11-30T06:35:48.462Z,17.02
2022-11-30T06:40:52.182Z,15.55
2022-11-30T06:45:55.849Z,18.65
2022-11-30T06:51:01.307Z,16.50
2022-11-30T06:56:10.327Z,17.40
2022-11-30T07:01:16.330Z,16.95
2022-11-30T07:06:21.452Z,17.48
2022-11-30T07:11:25.177Z,25.45
2022-11-30T07:16:29.204Z,17.40
2022-11-30T07:21:34.292Z,19.83
2022-11-30T07:26:40.642Z,15.40
2022-11-30T07:31:44.450Z,16.23
2022-11-30T07:36:50.234Z,15.77
2022-11-30T07:41:53.921Z,21.40
2022-11-30T07:46:57.555Z,20.45
2022-11-30T07:52:04.602Z,19.08
2022-11-30T08:02:13.282Z,19.48
2022-11-30T08:07:18.750Z,19.00
2022-11-30T08:12:22.675Z,17.45
2022-11-30T08:17:29.457Z,19.40
2022-11-30T08:22:35.432Z,20.45
2022-11-30T08:27:39.660Z,18.05
2022-11-30T08:32:43.741Z,18.90
2022-11-30T08:37:51.044Z,18.02
2022-11-30T08:42:55.212Z,20.27
2022-11-30T08:47:59.095Z,17.17
2022-11-30T08:53:06.508Z,13.52
2022-11-30T08:58:10.467Z,15.18
2022-11-30T09:03:14.156Z,14.05
2022-11-30T09:08:19.770Z,13.88
2022-11-30T09:13:23.610Z,15.88
2022-11-30T09:18:27.408Z,17.75
2022-11-30T09:23:32.592Z,19.65
2022-11-30T09:28:37.000Z,19.55
2022-11-30T09:33:41.221Z,25.02
2022-11-30T09:38:47.040Z,26.50
2022-11-30T09:44:19.456Z,27.20
2022-11-30T09:49:28.641Z,34.33
2022-11-30T09:54:38.978Z,36.85
2022-11-30T09:59:50.334Z,37.25
2022-11-30T10:04:54.058Z,39.20
2022-11-30T10:15:38.212Z,37.80
2022-11-30T10:20:56.141Z,37.55
2022-11-30T10:26:07.407Z,34.13
2022-11-30T10:31:12.069Z,34.38
2022-11-30T10:36:24.992Z,35.10
2022-11-30T10:41:33.303Z,33.92
2022-11-30T10:46:40.962Z,29.20
2022-11-30T10:51:52.072Z,32.22
2022-11-30T10:56:58.283Z,28.40
2022-11-30T11:02:02.807Z,27.90
2022-11-30T11:07:11.080Z,30.30
2022-11-30T11:12:20.261Z,29.48
2022-11-30T11:17:26.453Z,28.35
2022-11-30T11:22:32.667Z,29.73
2022-11-30T11:27:42.951Z,28.48
2022-11-30T11:33:00.191Z,30.00
2022-11-30T11:38:05.397Z,27.85
2022-11-30T11:43:18.393Z,28.23
2022-11-30T11:48:31.576Z,29.10
2022-11-30T11:53:53.083Z,24.90
2022-11-30T11:59:01.831Z,24.95
2022-11-30T12:04:18.461Z,24.10
2022-11-30T12:09:28.665Z,23.63
2022-11-30T12:14:35.811Z,24.42
2022-11-30T12:25:06.089Z,23.90
2022-11-30T12:30:20.183Z,22.15
2022-11-30T12:35:35.757Z,26.27
2022-11-30T12:40:49.048Z,20.33
2022-11-30T12:46:00.892Z,26.83
2022-11-30T12:51:14.779Z,20.70
2022-11-30T12:56:31.802Z,24.65
2022-11-30T13:01:49.836Z,24.30
2022-11-30T13:06:59.767Z,22.15
2022-11-30T13:12:08.903Z,19.70
2022-11-30T13:17:19.671Z,22.42
2022-11-30T13:22:31.995Z,20.42
2022-11-30T13:27:45.897Z,22.08
2022-11-30T13:32:59.309Z,20.00
2022-11-30T13:38:28.611Z,20.60
2022-11-30T13:43:30.183Z,20.30
2022-11-30T13:48:39.786Z,21.30
2022-11-30T13:53:44.154Z,24.27
2022-11-30T13:59:23.306Z,20.50
2022-11-30T14:04:35.234Z,23.25
2022-11-30T14:09:59.977Z,20.98
2022-11-30T14:15:23.949Z,23.45
2022-11-30T14:20:38.024Z,24.33
2022-11-30T14:25:48.547Z,22.50
2022-11-30T14:30:52.687Z,24.90
2022-11-30T14:36:01.080Z,27.05
2022-11-30T14:41:05.067Z,25.48
2022-11-30T14:46:18.788Z,24.15
2022-11-30T14:51:23.839Z,23.92
2022-11-30T14:56:34.226Z,26.20
2022-11-30T15:01:40.600Z,26.42
2022-11-30T15:06:45.905Z,24.53
2022-11-30T15:11:51.387Z,25.30
2022-11-30T15:16:57.176Z,26.08
2022-11-30T15:22:02.336Z,29.10
2022-11-30T15:27:11.374Z,29.80
2022-11-30T15:32:18.671Z,23.08
2022-11-30T15:42:39.810Z,23.65
2022-11-30T15:47:43.512Z,21.40
2022-11-30T15:52:51.021Z,22.48
2022-11-30T15:57:59.843Z,21.42
2022-11-30T16:03:10.360Z,25.58
2022-11-30T16:08:19.645Z,20.02
2022-11-30T16:13:25.381Z,22.38
2022-11-30T16:18:29.902Z,24.00
2022-11-30T16:23:36.124Z,23.33
2022-11-30T16:28:39.859Z,22.03
2022-11-30T16:33:43.522Z,23.73
2022-11-30T16:38:50.775Z,20.05
2022-11-30T16:43:56.129Z,24.52
2022-11-30T16:48:59.892Z,21.20
2022-11-30T16:54:05.373Z,23.17
2022-11-30T16:59:16.242Z,20.98
2022-11-30T17:04:22.828Z,27.33
2022-11-30T17:15:36.396Z,24.52
2022-11-30T17:20:40.707Z,23.85
2022-11-30T17:25:47.376Z,25.75
2022-11-30T17:30:52.134Z,26.48
2022-11-30T17:36:00.066Z,29.17
2022-11-30T17:41:18.353Z,25.40
2022-11-30T17:46:23.316Z,26.98
2022-11-30T17:51:29.314Z,28.80
2022-11-30T17:56:35.971Z,31.25
2022-11-30T18:01:41.693Z,28.08
2022-11-30T18:06:46.672Z,26.25
2022-11-30T18:11:52.045Z,25.60
2022-11-30T18:16:55.973Z,27.60
2022-11-30T18:22:00.003Z,23.58
2022-11-30T18:27:08.805Z,27.58
2022-11-30T18:32:15.640Z,23.88
2022-11-30T18:37:22.029Z,30.40
2022-11-30T18:42:27.759Z,22.13
2022-11-30T18:47:32.143Z,26.92
2022-11-30T18:52:36.200Z,23.65
2022-11-30T18:57:44.217Z,28.58
2022-11-30T19:02:50.087Z,27.50
2022-11-30T19:07:54.645Z,28.80
2022-11-30T19:13:03.972Z,29.08
2022-11-30T19:18:10.683Z,25.52
2022-11-30T19:23:14.843Z,28.63
2022-11-30T19:28:22.040Z,26.40
2022-11-30T19:33:26.374Z,24.88
2022-11-30T19:38:33.517Z,25.85
2022-11-30T19:43:44.364Z,24.15
2022-11-30T19:49:02.481Z,27.38
2022-11-30T19:54:07.319Z,26.77
2022-11-30T19:59:16.733Z,27.35
2022-11-30T20:04:24.144Z,25.15
2022-11-30T20:09:30.006Z,28.33
2022-11-30T20:14:36.925Z,27.40
2022-11-30T20:19:40.832Z,28.35
2022-11-30T20:24:48.742Z,29.35
2022-11-30T20:29:59.963Z,26.45
2022-11-30T20:35:04.556Z,30.85
2022-11-30T20:40:11.620Z,26.15
2022-11-30T20:50:20.971Z,28.65
2022-11-30T20:55:26.818Z,27.50
2022-11-30T21:00:32.771Z,25.10
2022-11-30T21:05:41.184Z,27.55
2022-11-30T21:10:48.177Z,28.83
2022-11-30T21:21:04.586Z,30.45
2022-11-30T21:26:13.851Z,28.10
2022-11-30T21:31:24.283Z,32.67
2022-11-30T21:36:34.662Z,27.52
2022-11-30T21:41:47.314Z,27.85
2022-11-30T21:46:58.838Z,28.08
2022-11-30T21:52:09.688Z,31.45
2022-11-30T21:57:13.700Z,28.48
2022-11-30T22:02:22.235Z,28.13
2022-11-30T22:07:32.774Z,32.35
2022-11-30T22:12:39.006Z,31.38
2022-11-30T22:17:44.541Z,32.22
2022-11-30T22:22:49.091Z,26.27
2022-11-30T22:27:53.360Z,28.15
2022-11-30T22:33:02.756Z,28.02
2022-11-30T22:38:16.827Z,27.70
2022-11-30T22:43:21.049Z,28.42
2022-11-30T22:48:27.382Z,27.08
2022-11-30T22:53:31.935Z,32.73
2022-11-30T22:58:36.047Z,30.00
2022-11-30T23:03:43.027Z,28.55
2022-11-30T23:08:50.811Z,29.20
2022-11-30T23:13:55.333Z,27.40
2022-11-30T23:19:01.675Z,26.67
2022-11-30T23:24:10.009Z,26.50
2022-11-30T23:29:16.342Z,25.10
2022-11-30T23:34:22.828Z,25.42
2022-11-30T23:39:33.206Z,24.83
2022-11-30T23:44:39.454Z,27.60
2022-11-30T23:49:50.839Z,26.00
2022-11-30T23:54:55.745Z,28.63
